createdAt,value
2019-03-31T00:00:16.799Z,54.70
2019-03-31T00:01:16.822Z,56.90
2019-03-31T00:02:16.859Z,59.40
2019-03-31T00:03:17.034Z,58.70
2019-03-31T00:04:16.852Z,56.30
2019-03-31T00:05:16.871Z,58.20
2019-03-31T00:06:16.882Z,56.60
2019-03-31T00:07:16.887Z,56.70
2019-03-31T00:08:16.899Z,58.90
2019-03-31T00:09:16.930Z,55.90
2019-03-31T00:10:17.028Z,59.30
2019-03-31T00:11:16.939Z,64.20
2019-03-31T00:12:17.367Z,61.80
2019-03-31T00:13:16.969Z,64.30
2019-03-31T00:14:16.986Z,63.30
2019-03-31T00:15:16.992Z,66.10
2019-03-31T00:16:17.010Z,60.80
2019-03-31T00:17:17.022Z,61.20
2019-03-31T00:18:17.034Z,59.60
2019-03-31T00:19:17.061Z,66.50
2019-03-31T00:20:17.051Z,60.50
2019-03-31T00:21:17.062Z,62.20
2019-03-31T00:22:17.078Z,62.30
2019-03-31T00:23:17.098Z,64.30
2019-03-31T00:24:17.112Z,60.10
2019-03-31T00:25:17.127Z,60.90
2019-03-31T00:26:17.133Z,62.50
2019-03-31T00:27:17.139Z,65.60
2019-03-31T00:28:17.168Z,66.50
2019-03-31T00:29:17.173Z,63.70
2019-03-31T00:30:17.180Z,65.80
2019-03-31T00:31:22.336Z,60.80
2019-03-31T00:32:17.230Z,64.40
2019-03-31T00:33:17.220Z,66.80
2019-03-31T00:34:17.287Z,62.20
2019-03-31T00:35:17.562Z,64.00
2019-03-31T00:36:17.274Z,66.00
2019-03-31T00:37:17.285Z,64.80
2019-03-31T00:38:17.286Z,66.00
2019-03-31T00:39:17.292Z,64.30
2019-03-31T00:40:17.320Z,64.30
2019-03-31T00:41:17.383Z,62.80
2019-03-31T00:45:17.372Z,63.40
2019-03-31T00:46:17.379Z,67.00
2019-03-31T00:47:17.393Z,64.80
2019-03-31T00:48:17.414Z,63.10
2019-03-31T00:49:17.433Z,66.00
2019-03-31T00:50:17.435Z,64.90
2019-03-31T00:51:17.450Z,64.00
2019-03-31T00:52:17.457Z,67.40
2019-03-31T00:53:17.472Z,64.60
2019-03-31T00:54:17.488Z,62.70
2019-03-31T00:55:17.499Z,65.50
2019-03-31T00:56:17.514Z,64.10
2019-03-31T00:57:17.518Z,67.50
2019-03-31T00:58:17.542Z,65.40
2019-03-31T00:59:17.546Z,71.00
2019-03-31T01:00:17.557Z,66.80
2019-03-31T01:01:17.568Z,67.90
2019-03-31T01:02:17.581Z,68.00
2019-03-31T01:03:17.604Z,67.60
2019-03-31T01:04:17.612Z,66.60
2019-03-31T01:05:17.625Z,63.50
2019-03-31T01:06:17.642Z,64.70
2019-03-31T01:07:17.721Z,64.60
2019-03-31T01:08:17.666Z,67.80
2019-03-31T01:09:17.678Z,71.10
2019-03-31T01:10:17.694Z,67.30
2019-03-31T01:11:17.697Z,70.20
2019-03-31T01:12:17.707Z,68.60
2019-03-31T01:13:17.732Z,68.90
2019-03-31T01:14:17.732Z,69.80
2019-03-31T01:15:17.748Z,69.10
2019-03-31T01:16:17.769Z,70.10
2019-03-31T01:17:19.075Z,71.00
2019-03-31T01:18:17.792Z,70.90
2019-03-31T01:19:17.988Z,74.70
2019-03-31T01:20:17.851Z,71.80
2019-03-31T01:21:17.817Z,74.20
2019-03-31T01:22:17.827Z,73.10
2019-03-31T01:23:17.847Z,73.60
2019-03-31T01:24:17.856Z,76.20
2019-03-31T01:25:17.870Z,73.20
2019-03-31T01:26:17.882Z,76.70
2019-03-31T01:27:17.892Z,75.10
2019-03-31T01:28:17.909Z,79.00
2019-03-31T01:29:17.918Z,73.70
2019-03-31T01:30:17.934Z,73.30
2019-03-31T01:31:17.945Z,77.20
2019-03-31T01:32:17.959Z,73.70
2019-03-31T01:33:17.974Z,75.10
2019-03-31T01:34:17.993Z,72.60
2019-03-31T01:35:17.988Z,79.60
2019-03-31T01:36:18.059Z,76.60
2019-03-31T01:37:20.173Z,77.60
2019-03-31T01:38:18.045Z,78.90
2019-03-31T01:39:18.064Z,78.10
2019-03-31T01:40:18.061Z,80.50
2019-03-31T01:41:18.065Z,76.00
2019-03-31T01:42:18.140Z,80.60
2019-03-31T01:43:18.193Z,75.70
2019-03-31T01:44:18.114Z,77.50
2019-03-31T01:46:18.211Z,78.40
2019-03-31T01:47:18.216Z,77.60
2019-03-31T01:48:18.151Z,74.60
2019-03-31T01:49:18.169Z,80.90
2019-03-31T01:50:18.184Z,76.50
2019-03-31T01:51:18.200Z,75.00
2019-03-31T01:52:18.209Z,77.50
2019-03-31T01:53:18.219Z,82.60
2019-03-31T01:54:18.233Z,78.20
2019-03-31T01:55:18.238Z,80.10
2019-03-31T01:56:18.254Z,78.80
2019-03-31T01:57:18.271Z,82.10
2019-03-31T01:58:18.283Z,82.90
2019-03-31T01:59:18.295Z,84.00
2019-03-31T02:00:18.302Z,77.90
2019-03-31T02:01:18.314Z,79.50
2019-03-31T02:02:18.327Z,81.70
2019-03-31T02:03:18.377Z,75.20
2019-03-31T02:05:18.363Z,79.20
2019-03-31T02:06:18.547Z,80.20
2019-03-31T02:07:18.419Z,84.60
2019-03-31T02:08:18.399Z,82.90
2019-03-31T02:09:18.410Z,81.70
2019-03-31T02:10:18.438Z,86.90
2019-03-31T02:11:18.670Z,80.20
2019-03-31T02:12:18.458Z,83.90
2019-03-31T02:13:18.463Z,88.20
2019-03-31T02:14:18.479Z,85.10
2019-03-31T02:15:18.494Z,84.40
2019-03-31T02:16:18.513Z,84.40
2019-03-31T02:17:18.873Z,87.70
2019-03-31T02:18:18.537Z,84.80
2019-03-31T02:19:18.534Z,88.90
2019-03-31T02:20:18.554Z,87.10
2019-03-31T02:21:18.559Z,86.10
2019-03-31T02:22:18.573Z,82.30
2019-03-31T02:23:18.585Z,86.00
2019-03-31T02:24:18.596Z,85.20
2019-03-31T02:25:18.616Z,89.60
2019-03-31T02:26:18.622Z,85.60
2019-03-31T02:27:18.636Z,85.30
2019-03-31T02:28:18.654Z,83.10
2019-03-31T02:29:18.665Z,80.70
2019-03-31T02:30:18.679Z,91.50
2019-03-31T02:31:18.703Z,88.20
2019-03-31T02:32:24.310Z,84.70
2019-03-31T02:33:18.717Z,81.80
2019-03-31T02:34:18.723Z,88.60
2019-03-31T02:35:18.746Z,81.40
2019-03-31T02:36:18.745Z,85.40
2019-03-31T02:37:18.758Z,85.50
2019-03-31T02:38:18.779Z,83.60
2019-03-31T02:39:18.788Z,89.00
2019-03-31T02:40:18.793Z,86.30
2019-03-31T02:41:18.962Z,80.00
2019-03-31T02:42:19.323Z,87.70
2019-03-31T02:43:18.886Z,83.30
2019-03-31T02:44:18.863Z,86.20
2019-03-31T02:45:18.861Z,83.30
2019-03-31T02:46:18.867Z,91.40
2019-03-31T02:47:18.960Z,86.80
2019-03-31T02:48:18.904Z,84.60
2019-03-31T02:49:18.948Z,86.30
2019-03-31T02:50:18.920Z,86.20
2019-03-31T02:51:18.930Z,85.90
2019-03-31T02:52:18.946Z,87.30
2019-03-31T02:53:18.957Z,90.30
2019-03-31T02:54:18.970Z,87.50
2019-03-31T02:55:18.993Z,86.70
2019-03-31T02:56:18.992Z,89.40
2019-03-31T02:57:19.008Z,86.60
2019-03-31T02:58:19.052Z,88.30
2019-03-31T02:59:19.038Z,90.10
2019-03-31T03:00:19.055Z,93.10
2019-03-31T03:01:19.095Z,84.60
2019-03-31T03:02:19.073Z,88.60
2019-03-31T03:03:19.080Z,83.70
2019-03-31T03:04:19.088Z,88.30
2019-03-31T03:05:20.369Z,88.50
2019-03-31T03:06:19.109Z,90.60
2019-03-31T03:07:19.125Z,90.90
2019-03-31T03:08:19.146Z,86.50
2019-03-31T03:09:19.146Z,82.50
2019-03-31T03:10:19.160Z,85.90
2019-03-31T03:11:19.179Z,84.70
2019-03-31T03:12:19.186Z,82.00
2019-03-31T03:13:19.201Z,87.90
2019-03-31T03:14:19.211Z,81.90
2019-03-31T03:15:19.259Z,84.00
2019-03-31T03:16:19.548Z,82.10
2019-03-31T03:17:19.258Z,78.90
2019-03-31T03:18:19.275Z,84.60
2019-03-31T03:19:19.278Z,81.80
2019-03-31T03:20:19.377Z,83.10
2019-03-31T03:21:23.688Z,80.00
2019-03-31T03:22:19.307Z,81.40
2019-03-31T03:23:19.322Z,83.20
2019-03-31T03:24:19.330Z,79.40
2019-03-31T03:25:19.342Z,83.30
2019-03-31T03:26:19.362Z,80.60
2019-03-31T03:27:19.367Z,77.50
2019-03-31T03:28:19.381Z,79.90
2019-03-31T03:29:19.414Z,82.00
2019-03-31T03:30:19.480Z,84.60
2019-03-31T03:31:19.476Z,82.40
2019-03-31T03:32:19.443Z,76.90
2019-03-31T03:34:19.452Z,77.40
2019-03-31T03:35:19.515Z,80.20
2019-03-31T03:36:19.488Z,79.50
2019-03-31T03:37:19.489Z,78.90
2019-03-31T03:38:19.503Z,74.50
2019-03-31T03:39:19.512Z,76.30
2019-03-31T03:40:19.526Z,75.70
2019-03-31T03:41:19.531Z,77.20
2019-03-31T03:42:19.545Z,72.90
2019-03-31T03:43:19.557Z,69.60
2019-03-31T03:44:19.585Z,75.60
2019-03-31T03:45:19.588Z,75.80
2019-03-31T03:46:19.695Z,75.50
2019-03-31T03:47:19.630Z,73.30
2019-03-31T03:48:19.793Z,77.60
2019-03-31T03:49:19.831Z,77.30
2019-03-31T03:50:19.689Z,79.70
2019-03-31T03:51:19.657Z,78.80
2019-03-31T03:52:19.688Z,78.20
2019-03-31T03:53:19.672Z,72.80
2019-03-31T03:54:19.686Z,75.90
2019-03-31T03:55:20.061Z,74.80
2019-03-31T03:56:19.714Z,75.60
2019-03-31T03:57:19.723Z,79.90
2019-03-31T03:58:19.744Z,77.10
2019-03-31T03:59:19.751Z,71.50
2019-03-31T04:00:19.766Z,73.20
2019-03-31T04:01:19.782Z,73.50
2019-03-31T04:02:19.785Z,68.80
2019-03-31T04:03:30.164Z,68.90
2019-03-31T04:04:19.816Z,66.10
2019-03-31T04:05:19.830Z,67.30
2019-03-31T04:06:19.828Z,68.00
2019-03-31T04:07:19.851Z,67.80
2019-03-31T04:08:19.957Z,66.20
2019-03-31T04:09:19.864Z,66.20
2019-03-31T04:10:19.873Z,61.80
2019-03-31T04:11:21.522Z,63.90
2019-03-31T04:12:19.933Z,64.70
2019-03-31T04:13:19.916Z,63.60
2019-03-31T04:14:19.922Z,64.80
2019-03-31T04:15:19.934Z,58.80
2019-03-31T04:16:19.943Z,63.10
2019-03-31T04:17:19.964Z,59.50
2019-03-31T04:18:19.996Z,60.80
2019-03-31T04:19:20.345Z,59.60
2019-03-31T04:20:20.059Z,58.10
2019-03-31T04:21:20.025Z,63.50
2019-03-31T04:22:20.018Z,57.50
2019-03-31T04:23:20.029Z,61.10
2019-03-31T04:24:20.046Z,62.90
2019-03-31T04:25:20.160Z,62.50
2019-03-31T04:26:20.064Z,61.20
2019-03-31T04:27:20.070Z,63.20
2019-03-31T04:28:20.097Z,61.00
2019-03-31T04:29:20.100Z,60.90
2019-03-31T04:30:20.107Z,58.50
2019-03-31T04:31:20.118Z,60.50
2019-03-31T04:32:20.129Z,62.30
2019-03-31T04:33:20.200Z,57.80
2019-03-31T04:34:20.169Z,60.70
2019-03-31T04:35:20.167Z,60.20
2019-03-31T04:36:20.179Z,59.50
2019-03-31T04:37:20.197Z,56.80
2019-03-31T04:38:20.200Z,55.70
2019-03-31T04:39:20.231Z,58.00
2019-03-31T04:40:20.232Z,56.50
2019-03-31T04:41:20.238Z,52.90
2019-03-31T04:42:20.246Z,56.90
2019-03-31T04:43:20.256Z,55.70
2019-03-31T04:44:20.271Z,55.00
2019-03-31T04:45:20.282Z,58.10
2019-03-31T04:46:20.293Z,52.30
2019-03-31T04:47:20.314Z,53.50
2019-03-31T04:50:20.652Z,50.80
2019-03-31T04:51:21.013Z,56.50
2019-03-31T04:52:20.612Z,51.50
2019-03-31T04:53:20.374Z,51.30
2019-03-31T04:54:20.385Z,50.00
2019-03-31T04:55:20.398Z,49.20
2019-03-31T04:57:20.829Z,53.10
2019-03-31T04:58:20.430Z,50.10
2019-03-31T04:59:20.439Z,51.20
2019-03-31T05:00:20.451Z,52.60
2019-03-31T05:01:20.465Z,52.30
2019-03-31T05:02:20.482Z,48.10
2019-03-31T05:03:20.484Z,50.50
2019-03-31T05:04:20.501Z,47.50
2019-03-31T05:05:20.510Z,50.80
2019-03-31T05:06:20.528Z,48.90
2019-03-31T05:07:20.542Z,54.60
2019-03-31T05:08:20.808Z,47.80
2019-03-31T05:09:20.619Z,48.60
2019-03-31T05:10:20.570Z,50.50
2019-03-31T05:11:20.581Z,53.10
2019-03-31T05:12:20.596Z,51.10
2019-03-31T05:13:20.736Z,48.40
2019-03-31T05:14:20.628Z,55.10
2019-03-31T05:15:20.630Z,47.00
2019-03-31T05:16:20.640Z,51.40
2019-03-31T05:17:20.686Z,47.80
2019-03-31T05:18:20.737Z,52.50
2019-03-31T05:19:20.977Z,50.80
2019-03-31T05:20:20.869Z,49.90
2019-03-31T05:21:20.710Z,50.50
2019-03-31T05:22:20.705Z,48.10
2019-03-31T05:23:20.716Z,51.90
2019-03-31T05:24:20.734Z,45.70
2019-03-31T05:25:20.740Z,50.30
2019-03-31T05:26:20.750Z,53.10
2019-03-31T05:27:20.771Z,48.60
2019-03-31T05:28:20.801Z,52.90
2019-03-31T05:29:20.837Z,54.70
2019-03-31T05:30:20.828Z,49.70
2019-03-31T05:31:20.823Z,48.70
2019-03-31T05:32:20.817Z,48.30
2019-03-31T05:33:20.837Z,50.30
2019-03-31T05:34:20.845Z,52.90
2019-03-31T05:36:20.868Z,49.40
2019-03-31T05:37:20.921Z,48.90
2019-03-31T05:38:21.144Z,52.70
2019-03-31T05:39:20.891Z,55.90
2019-03-31T05:40:20.903Z,47.20
2019-03-31T05:41:20.916Z,51.70
2019-03-31T05:42:20.934Z,53.50
2019-03-31T05:43:20.936Z,53.20
2019-03-31T05:44:20.953Z,49.10
2019-03-31T05:45:21.015Z,54.50
2019-03-31T05:46:21.182Z,50.90
2019-03-31T05:47:21.034Z,52.30
2019-03-31T05:48:21.067Z,50.60
2019-03-31T05:49:21.750Z,51.00
2019-03-31T05:50:21.072Z,54.70
2019-03-31T05:51:21.030Z,51.50
2019-03-31T05:52:21.086Z,52.60
2019-03-31T05:53:21.073Z,53.00
2019-03-31T05:54:21.060Z,54.30
2019-03-31T05:55:21.069Z,55.40
2019-03-31T05:56:21.087Z,53.70
2019-03-31T05:57:21.100Z,50.90
2019-03-31T05:58:21.113Z,49.20
2019-03-31T05:59:21.120Z,50.90
2019-03-31T06:00:21.137Z,51.50
2019-03-31T06:01:21.147Z,51.10
2019-03-31T06:02:21.218Z,50.60
2019-03-31T06:03:21.178Z,45.60
2019-03-31T06:04:32.600Z,50.70
2019-03-31T06:05:21.182Z,52.50
2019-03-31T06:06:21.195Z,50.10
2019-03-31T06:07:21.206Z,51.60
2019-03-31T06:08:21.215Z,49.30
2019-03-31T06:09:21.227Z,48.60
2019-03-31T06:10:21.238Z,53.10
2019-03-31T06:11:21.258Z,46.20
2019-03-31T06:12:21.258Z,52.90
2019-03-31T06:13:21.271Z,47.80
2019-03-31T06:14:21.283Z,52.10
2019-03-31T06:15:21.293Z,52.10
2019-03-31T06:16:21.303Z,51.40
2019-03-31T06:17:21.323Z,47.10
2019-03-31T06:18:21.358Z,49.30
2019-03-31T06:19:21.336Z,44.80
2019-03-31T06:20:21.348Z,50.50
2019-03-31T06:21:21.372Z,50.60
2019-03-31T06:22:21.579Z,48.60
2019-03-31T06:23:21.398Z,44.70
2019-03-31T06:24:21.395Z,50.40
2019-03-31T06:25:21.412Z,46.00
2019-03-31T06:26:21.418Z,47.40
2019-03-31T06:27:21.429Z,46.80
2019-03-31T06:28:21.898Z,51.60
2019-03-31T06:29:21.777Z,52.50
2019-03-31T06:30:21.468Z,46.40
2019-03-31T06:31:21.505Z,49.70
2019-03-31T06:32:21.486Z,44.50
2019-03-31T06:33:21.506Z,47.70
2019-03-31T06:34:21.513Z,45.80
2019-03-31T06:35:21.518Z,45.60
2019-03-31T06:36:21.538Z,45.70
2019-03-31T06:37:21.544Z,45.30
2019-03-31T06:38:21.555Z,47.30
2019-03-31T06:39:21.570Z,44.30
2019-03-31T06:40:21.579Z,47.40
2019-03-31T06:41:21.588Z,44.90
2019-03-31T06:42:21.602Z,48.00
2019-03-31T06:43:21.618Z,48.10
2019-03-31T06:44:21.625Z,44.30
2019-03-31T06:45:21.632Z,45.30
2019-03-31T06:46:21.715Z,46.70
2019-03-31T06:48:21.800Z,41.40
2019-03-31T06:49:21.679Z,45.70
2019-03-31T06:50:21.692Z,46.80
2019-03-31T06:51:21.703Z,44.50
2019-03-31T06:52:21.776Z,47.60
2019-03-31T06:53:21.747Z,47.40
2019-03-31T06:54:21.748Z,43.10
2019-03-31T06:55:21.746Z,44.90
2019-03-31T06:56:21.763Z,49.40
2019-03-31T06:58:21.792Z,48.60
2019-03-31T06:59:21.799Z,44.00
2019-03-31T07:00:21.803Z,42.20
2019-03-31T07:01:21.926Z,45.10
2019-03-31T07:02:21.828Z,45.70
2019-03-31T07:03:21.842Z,43.50
2019-03-31T07:04:21.888Z,45.30
2019-03-31T07:05:21.863Z,39.80
2019-03-31T07:06:21.927Z,41.70
2019-03-31T07:07:23.769Z,40.80
2019-03-31T07:08:21.903Z,46.80
2019-03-31T07:09:21.906Z,44.40
2019-03-31T07:10:21.919Z,42.70
2019-03-31T07:11:21.928Z,38.80
2019-03-31T07:12:21.944Z,42.00
2019-03-31T07:13:21.958Z,42.20
2019-03-31T07:14:21.970Z,43.50
2019-03-31T07:15:21.978Z,40.30
2019-03-31T07:16:21.987Z,39.80
2019-03-31T07:17:21.997Z,40.30
2019-03-31T07:18:22.030Z,40.40
2019-03-31T07:19:22.030Z,40.20
2019-03-31T07:20:22.032Z,40.60
2019-03-31T07:21:22.051Z,38.20
2019-03-31T07:22:24.389Z,37.90
2019-03-31T07:23:22.069Z,39.00
2019-03-31T07:24:22.077Z,43.00
2019-03-31T07:25:22.101Z,38.00
2019-03-31T07:26:22.134Z,36.90
2019-03-31T07:27:22.113Z,38.00
2019-03-31T07:28:22.141Z,37.30
2019-03-31T07:29:22.154Z,36.00
2019-03-31T07:30:22.155Z,38.50
2019-03-31T07:31:22.167Z,38.60
2019-03-31T07:32:22.181Z,32.80
2019-03-31T07:33:22.187Z,37.40
2019-03-31T07:34:22.209Z,33.50
2019-03-31T07:35:22.210Z,33.70
2019-03-31T07:36:22.222Z,37.40
2019-03-31T07:37:22.251Z,33.10
2019-03-31T07:38:22.492Z,33.30
2019-03-31T07:39:22.380Z,31.30
2019-03-31T07:40:22.592Z,33.10
2019-03-31T07:41:22.438Z,34.00
2019-03-31T07:42:22.327Z,29.90
2019-03-31T07:43:22.307Z,31.40
2019-03-31T07:44:22.319Z,27.40
2019-03-31T07:45:22.350Z,31.90
2019-03-31T07:46:22.342Z,27.80
2019-03-31T07:47:22.357Z,33.20
2019-03-31T07:48:22.373Z,31.50
2019-03-31T07:49:22.383Z,32.30
2019-03-31T07:50:22.392Z,30.60
2019-03-31T07:51:22.409Z,27.30
2019-03-31T07:52:22.416Z,33.80
2019-03-31T07:53:22.426Z,29.70
2019-03-31T07:54:22.443Z,28.90
2019-03-31T07:55:22.449Z,28.70
2019-03-31T07:56:22.467Z,29.00
2019-03-31T07:57:22.475Z,30.90
2019-03-31T07:58:22.495Z,31.40
2019-03-31T07:59:22.675Z,29.60
2019-03-31T08:00:22.570Z,30.00
2019-03-31T08:01:22.528Z,29.80
2019-03-31T08:02:22.548Z,31.30
2019-03-31T08:03:22.551Z,27.80
2019-03-31T08:04:22.573Z,28.10
2019-03-31T08:05:33.068Z,31.80
2019-03-31T08:06:22.615Z,27.90
2019-03-31T08:07:22.603Z,30.00
2019-03-31T08:08:22.613Z,31.30
2019-03-31T08:09:22.684Z,31.00
2019-03-31T08:10:22.636Z,30.10
2019-03-31T08:11:23.405Z,30.00
2019-03-31T08:12:23.215Z,29.80
2019-03-31T08:13:22.669Z,30.50
2019-03-31T08:14:22.682Z,28.80
2019-03-31T08:15:22.700Z,27.60
2019-03-31T08:16:22.708Z,28.30
2019-03-31T08:17:22.725Z,30.60
2019-03-31T08:18:22.743Z,29.20
2019-03-31T08:19:22.760Z,24.60
2019-03-31T08:20:22.757Z,26.80
2019-03-31T08:21:22.773Z,26.60
2019-03-31T08:22:22.788Z,26.50
2019-03-31T08:23:22.799Z,27.10
2019-03-31T08:24:22.815Z,28.30
2019-03-31T08:25:22.834Z,26.90
2019-03-31T08:26:22.833Z,24.50
2019-03-31T08:27:22.843Z,25.50
2019-03-31T08:28:22.855Z,27.00
2019-03-31T08:29:22.875Z,28.60
2019-03-31T08:30:22.903Z,24.00
2019-03-31T08:31:22.898Z,23.10
2019-03-31T08:32:22.906Z,22.80
2019-03-31T08:33:22.924Z,22.00
2019-03-31T08:34:22.952Z,24.50
2019-03-31T08:35:22.940Z,24.00
2019-03-31T08:36:22.970Z,22.60
2019-03-31T08:37:23.033Z,23.60
2019-03-31T08:38:24.518Z,22.90
2019-03-31T08:39:23.059Z,22.10
2019-03-31T08:40:23.016Z,21.20
2019-03-31T08:41:23.023Z,21.80
2019-03-31T08:42:23.081Z,22.00
2019-03-31T08:43:23.371Z,19.90
2019-03-31T08:44:23.066Z,19.10
2019-03-31T08:45:23.070Z,17.10
2019-03-31T08:46:23.083Z,19.70
2019-03-31T08:47:23.088Z,19.60
2019-03-31T08:48:23.101Z,15.70
2019-03-31T08:49:23.121Z,17.30
2019-03-31T08:50:23.125Z,15.90
2019-03-31T08:51:23.144Z,18.10
2019-03-31T08:52:23.158Z,17.90
2019-03-31T08:53:23.160Z,20.10
2019-03-31T08:54:23.178Z,18.30
2019-03-31T08:55:23.221Z,16.00
2019-03-31T08:56:23.202Z,17.70
2019-03-31T08:57:23.223Z,13.90
2019-03-31T08:58:23.229Z,17.40
2019-03-31T08:59:23.240Z,16.80
2019-03-31T09:00:23.254Z,17.10
2019-03-31T09:01:23.263Z,17.10
2019-03-31T09:02:23.341Z,15.10
2019-03-31T09:03:23.298Z,14.90
2019-03-31T09:04:23.338Z,14.50
2019-03-31T09:05:23.489Z,13.80
2019-03-31T09:06:23.320Z,16.10
2019-03-31T09:07:23.332Z,14.10
2019-03-31T09:08:23.410Z,14.90
2019-03-31T09:09:23.490Z,14.00
2019-03-31T09:10:24.041Z,13.90
2019-03-31T09:11:23.387Z,14.20
2019-03-31T09:12:23.395Z,15.70
2019-03-31T09:13:23.422Z,13.10
2019-03-31T09:14:23.433Z,13.00
2019-03-31T09:15:23.436Z,14.20
2019-03-31T09:16:23.454Z,13.10
2019-03-31T09:17:23.459Z,14.20
2019-03-31T09:18:23.486Z,13.40
2019-03-31T09:19:23.488Z,14.80
2019-03-31T09:20:23.513Z,11.30
2019-03-31T09:21:23.520Z,13.10
2019-03-31T09:22:23.632Z,14.00
2019-03-31T09:23:23.560Z,13.70
2019-03-31T09:24:23.586Z,13.10
2019-03-31T09:25:23.607Z,14.00
2019-03-31T09:26:23.715Z,13.90
2019-03-31T09:27:23.637Z,12.80
2019-03-31T09:28:23.599Z,11.90
2019-03-31T09:29:23.619Z,14.50
2019-03-31T09:30:23.642Z,16.40
2019-03-31T09:31:23.649Z,12.10
2019-03-31T09:32:23.662Z,13.40
2019-03-31T09:33:23.725Z,14.20
2019-03-31T09:34:24.041Z,14.50
2019-03-31T09:35:23.689Z,14.50
2019-03-31T09:36:23.701Z,11.60
2019-03-31T09:37:23.721Z,14.20
2019-03-31T09:38:23.734Z,12.10
2019-03-31T09:39:23.782Z,12.20
2019-03-31T09:40:23.754Z,15.00
2019-03-31T09:41:23.772Z,10.70
2019-03-31T09:42:23.781Z,10.80
2019-03-31T09:43:23.798Z,12.50
2019-03-31T09:44:23.821Z,10.70
2019-03-31T09:45:23.811Z,12.90
2019-03-31T09:46:23.822Z,12.80
2019-03-31T09:47:23.835Z,12.60
2019-03-31T09:48:23.841Z,13.50
2019-03-31T09:49:23.871Z,11.50
2019-03-31T09:50:23.869Z,12.40
2019-03-31T09:51:23.885Z,13.30
2019-03-31T09:52:23.897Z,12.60
2019-03-31T09:53:23.909Z,11.90
2019-03-31T09:54:23.923Z,13.10
2019-03-31T09:55:23.934Z,10.80
2019-03-31T09:56:23.945Z,10.40
2019-03-31T09:57:23.966Z,10.00
2019-03-31T09:58:23.972Z,10.80
2019-03-31T09:59:23.983Z,10.10
2019-03-31T10:00:23.995Z,10.60
2019-03-31T10:01:24.017Z,12.30
2019-03-31T10:02:24.027Z,10.90
2019-03-31T10:03:24.068Z,10.10
2019-03-31T10:04:24.044Z,8.70
2019-03-31T10:05:24.057Z,10.30
2019-03-31T10:06:30.003Z,10.00
2019-03-31T10:07:24.085Z,13.40
2019-03-31T10:09:24.401Z,9.90
2019-03-31T10:10:24.152Z,12.80
2019-03-31T10:11:24.142Z,11.40
2019-03-31T10:12:24.197Z,10.00
2019-03-31T10:13:24.214Z,11.30
2019-03-31T10:14:24.199Z,12.40
2019-03-31T10:15:24.215Z,10.30
2019-03-31T10:16:24.218Z,10.20
2019-03-31T10:17:24.213Z,9.50
2019-03-31T10:18:24.243Z,11.70
2019-03-31T10:19:24.236Z,10.10
2019-03-31T10:20:24.253Z,10.30
2019-03-31T10:21:24.260Z,10.30
2019-03-31T10:22:24.279Z,9.70
2019-03-31T10:23:24.288Z,10.80
2019-03-31T10:24:24.447Z,9.00
2019-03-31T10:25:24.320Z,9.10
2019-03-31T10:26:31.823Z,10.90
2019-03-31T10:27:24.341Z,9.90
2019-03-31T10:28:24.356Z,9.40
2019-03-31T10:29:24.366Z,11.10
2019-03-31T10:30:24.395Z,10.50
2019-03-31T10:31:24.390Z,9.10
2019-03-31T10:32:24.408Z,8.30
2019-03-31T10:33:24.413Z,11.50
2019-03-31T10:34:24.432Z,8.90
2019-03-31T10:35:24.519Z,8.80
2019-03-31T10:36:24.460Z,11.60
2019-03-31T10:37:24.467Z,9.80
2019-03-31T10:38:24.477Z,9.30
2019-03-31T10:39:24.769Z,9.40
2019-03-31T10:41:24.625Z,10.10
2019-03-31T10:42:24.537Z,10.30
2019-03-31T10:43:24.543Z,11.80
2019-03-31T10:44:24.556Z,11.60
2019-03-31T10:45:24.571Z,11.80
2019-03-31T10:46:24.584Z,10.50
2019-03-31T10:47:24.594Z,10.80
2019-03-31T10:48:24.607Z,10.30
2019-03-31T10:49:24.624Z,11.00
2019-03-31T10:50:24.630Z,9.00
2019-03-31T10:51:24.643Z,11.70
2019-03-31T10:52:24.657Z,8.80
2019-03-31T10:53:24.762Z,9.00
2019-03-31T10:54:24.689Z,10.50
2019-03-31T10:55:24.697Z,8.60
2019-03-31T10:56:24.721Z,12.10
2019-03-31T10:57:24.721Z,11.20
2019-03-31T10:58:24.741Z,12.30
2019-03-31T10:59:24.745Z,10.70
2019-03-31T11:00:24.762Z,10.60
2019-03-31T11:01:24.781Z,10.60
2019-03-31T11:02:24.785Z,11.50
2019-03-31T11:03:24.801Z,11.10
2019-03-31T11:04:24.814Z,11.20
2019-03-31T11:05:24.828Z,13.20
2019-03-31T11:06:24.891Z,10.00
2019-03-31T11:07:24.943Z,10.50
2019-03-31T11:08:24.860Z,12.00
2019-03-31T11:11:25.264Z,10.20
2019-03-31T11:13:26.402Z,12.20
2019-03-31T11:14:24.942Z,11.80
2019-03-31T11:15:24.958Z,11.00
2019-03-31T11:16:24.968Z,11.60
2019-03-31T11:17:25.026Z,11.20
2019-03-31T11:18:25.205Z,13.90
2019-03-31T11:19:25.031Z,13.90
2019-03-31T11:20:25.018Z,15.40
2019-03-31T11:21:25.035Z,14.20
2019-03-31T11:22:25.047Z,15.80
2019-03-31T11:23:25.054Z,12.50
2019-03-31T11:24:25.068Z,14.30
2019-03-31T11:25:29.092Z,14.10
2019-03-31T11:26:25.097Z,12.30
2019-03-31T11:27:25.108Z,14.00
2019-03-31T11:28:25.120Z,14.80
2019-03-31T11:29:25.143Z,16.70
2019-03-31T11:30:25.147Z,15.80
2019-03-31T11:31:25.166Z,12.90
2019-03-31T11:32:25.165Z,14.50
2019-03-31T11:33:25.180Z,14.40
2019-03-31T11:34:25.193Z,15.00
2019-03-31T11:35:25.211Z,14.00
2019-03-31T11:36:25.214Z,15.20
2019-03-31T11:38:25.256Z,16.60
2019-03-31T11:39:25.367Z,16.00
2019-03-31T11:40:25.281Z,15.50
2019-03-31T11:41:25.292Z,15.70
2019-03-31T11:42:25.799Z,14.00
2019-03-31T11:43:25.302Z,12.80
2019-03-31T11:44:27.830Z,13.20
2019-03-31T11:45:25.453Z,12.80
2019-03-31T11:46:25.368Z,10.80
2019-03-31T11:47:25.354Z,14.00
2019-03-31T11:48:25.361Z,11.40
2019-03-31T11:49:25.379Z,14.20
2019-03-31T11:50:25.386Z,12.40
2019-03-31T11:51:25.467Z,12.60
2019-03-31T11:52:25.433Z,12.30
2019-03-31T11:53:25.425Z,12.50
2019-03-31T11:54:25.499Z,9.50
2019-03-31T11:55:25.458Z,10.70
2019-03-31T11:56:25.462Z,10.40
2019-03-31T11:57:25.485Z,12.70
2019-03-31T11:58:25.490Z,10.20
2019-03-31T11:59:25.502Z,11.70
2019-03-31T12:00:25.517Z,9.70
2019-03-31T12:01:25.532Z,11.50
2019-03-31T12:02:27.252Z,8.20
2019-03-31T12:03:25.586Z,10.10
2019-03-31T12:04:25.572Z,9.70
2019-03-31T12:05:25.582Z,9.50
2019-03-31T12:06:25.590Z,7.30
2019-03-31T12:07:28.324Z,9.10
2019-03-31T12:08:25.921Z,9.90
2019-03-31T12:09:25.872Z,9.20
2019-03-31T12:10:26.083Z,10.20
2019-03-31T12:11:26.053Z,9.90
2019-03-31T12:12:25.912Z,9.00
2019-03-31T12:13:25.825Z,9.90
2019-03-31T12:14:25.723Z,9.90
2019-03-31T12:15:25.739Z,12.00
2019-03-31T12:16:25.827Z,11.40
2019-03-31T12:17:25.772Z,10.10
2019-03-31T12:18:25.772Z,9.90
2019-03-31T12:19:25.760Z,10.00
2019-03-31T12:20:25.802Z,7.80
2019-03-31T12:21:26.531Z,7.70
2019-03-31T12:22:25.850Z,8.50
2019-03-31T12:23:25.861Z,9.60
2019-03-31T12:24:25.840Z,12.70
2019-03-31T12:25:25.839Z,8.70
2019-03-31T12:26:25.854Z,9.60
2019-03-31T12:27:25.865Z,11.20
2019-03-31T12:28:25.890Z,7.90
2019-03-31T12:29:25.894Z,8.40
2019-03-31T12:30:25.946Z,8.30
2019-03-31T12:31:25.921Z,11.50
2019-03-31T12:32:25.955Z,8.60
2019-03-31T12:33:26.058Z,8.70
2019-03-31T12:34:26.011Z,8.60
2019-03-31T12:35:25.977Z,8.00
2019-03-31T12:36:26.239Z,7.90
2019-03-31T12:37:41.265Z,8.70
2019-03-31T12:38:26.027Z,9.00
2019-03-31T12:39:26.043Z,11.20
2019-03-31T12:40:26.041Z,8.50
2019-03-31T12:41:26.063Z,7.80
2019-03-31T12:42:26.079Z,9.40
2019-03-31T12:43:26.106Z,9.20
2019-03-31T12:44:26.117Z,10.10
2019-03-31T12:45:26.432Z,7.80
2019-03-31T12:46:26.184Z,8.90
2019-03-31T12:47:26.159Z,8.90
2019-03-31T12:48:26.155Z,8.40
2019-03-31T12:49:26.167Z,22.10
2019-03-31T12:50:26.186Z,6.50
2019-03-31T12:51:26.198Z,6.90
2019-03-31T12:52:26.208Z,7.30
2019-03-31T12:53:26.220Z,7.60
2019-03-31T12:54:26.236Z,7.70
2019-03-31T12:55:26.511Z,9.50
2019-03-31T12:56:26.312Z,7.80
2019-03-31T12:57:26.277Z,10.90
2019-03-31T12:58:26.298Z,7.70
2019-03-31T12:59:27.526Z,6.20
2019-03-31T13:00:26.336Z,8.70
2019-03-31T13:01:26.338Z,9.20
2019-03-31T13:02:26.351Z,7.50
2019-03-31T13:03:26.416Z,10.90
2019-03-31T13:04:26.381Z,8.60
2019-03-31T13:05:26.487Z,8.00
2019-03-31T13:06:26.408Z,7.10
2019-03-31T13:08:26.952Z,8.20
2019-03-31T13:09:26.766Z,10.60
2019-03-31T13:10:26.452Z,9.60
2019-03-31T13:11:26.463Z,8.50
2019-03-31T13:12:26.478Z,6.10
2019-03-31T13:13:26.504Z,7.50
2019-03-31T13:14:26.553Z,8.50